createdAt,value
2022-08-26T00:04:19.727Z,21.00
2022-08-26T00:09:25.289Z,20.96
2022-08-26T00:14:31.193Z,20.90
2022-08-26T00:19:34.910Z,20.86
2022-08-26T00:24:38.031Z,20.81
2022-08-26T00:29:41.055Z,20.77
2022-08-26T00:34:44.026Z,20.72
2022-08-26T00:39:47.576Z,20.69
2022-08-26T00:44:51.009Z,20.67
2022-08-26T00:49:55.322Z,20.61
2022-08-26T00:55:23.909Z,20.57
2022-08-26T01:00:32.111Z,20.52
2022-08-26T01:05:35.148Z,20.48
2022-08-26T01:10:38.212Z,20.42
2022-08-26T01:15:49.284Z,20.38
2022-08-26T01:21:29.545Z,20.36
2022-08-26T01:26:41.562Z,20.32
2022-08-26T01:31:49.700Z,20.29
2022-08-26T01:37:05.459Z,20.23
2022-08-26T01:42:12.442Z,20.19
2022-08-26T01:47:18.111Z,20.13
2022-08-26T01:52:28.676Z,20.08
2022-08-26T01:57:31.896Z,20.07
2022-08-26T02:02:34.751Z,20.01
2022-08-26T02:07:40.514Z,19.99
2022-08-26T02:12:43.315Z,19.95
2022-08-26T02:17:47.951Z,19.88
2022-08-26T02:22:56.207Z,19.83
2022-08-26T02:28:00.666Z,19.79
2022-08-26T02:33:03.981Z,19.72
2022-08-26T02:38:11.174Z,19.68
2022-08-26T02:43:14.894Z,19.65
2022-08-26T02:48:21.245Z,19.60
2022-08-26T02:53:25.410Z,19.57
2022-08-26T02:58:28.497Z,19.53
2022-08-26T03:03:32.057Z,19.52
2022-08-26T03:08:35.526Z,19.50
2022-08-26T03:13:39.514Z,19.46
2022-08-26T03:18:43.388Z,19.42
2022-08-26T03:23:58.643Z,19.39
2022-08-26T03:29:20.207Z,19.37
2022-08-26T03:34:23.401Z,19.36
2022-08-26T03:39:26.519Z,19.33
2022-08-26T03:44:30.058Z,19.31
2022-08-26T03:49:34.919Z,19.27
2022-08-26T03:54:38.765Z,19.25
2022-08-26T03:59:41.552Z,19.20
2022-08-26T04:04:44.385Z,19.17
2022-08-26T04:09:47.735Z,19.15
2022-08-26T04:14:52.644Z,19.16
2022-08-26T04:19:56.725Z,19.18
2022-08-26T04:25:00.140Z,19.20
2022-08-26T04:30:04.868Z,19.23
2022-08-26T04:35:08.383Z,19.24
2022-08-26T04:40:12.720Z,19.25
2022-08-26T04:45:16.321Z,19.32
2022-08-26T04:50:20.815Z,19.41
2022-08-26T04:55:38.115Z,19.47
2022-08-26T05:00:45.871Z,19.61
2022-08-26T05:05:51.251Z,19.71
2022-08-26T05:10:56.041Z,19.83
2022-08-26T05:16:05.624Z,19.96
2022-08-26T05:21:09.336Z,20.09
2022-08-26T05:26:12.268Z,20.21
2022-08-26T05:31:31.790Z,20.32
2022-08-26T05:36:36.067Z,20.47
2022-08-26T05:41:42.979Z,20.63
2022-08-26T05:46:47.699Z,20.78
2022-08-26T05:51:51.495Z,20.95
2022-08-26T05:56:54.431Z,21.14
2022-08-26T06:01:57.388Z,21.31
2022-08-26T06:07:01.061Z,21.49
2022-08-26T06:12:05.110Z,21.66
2022-08-26T06:17:09.530Z,21.83
2022-08-26T06:22:32.564Z,22.05
2022-08-26T06:27:36.803Z,22.33
2022-08-26T06:32:39.620Z,22.54
2022-08-26T06:37:42.905Z,22.75
2022-08-26T06:42:45.956Z,22.94
2022-08-26T06:47:49.510Z,23.13
2022-08-26T06:52:54.925Z,23.29
2022-08-26T06:57:59.925Z,23.45
2022-08-26T07:03:04.765Z,23.58
2022-08-26T07:08:07.975Z,23.76
2022-08-26T07:13:12.421Z,23.92
2022-08-26T07:18:17.213Z,24.11
2022-08-26T07:23:20.438Z,24.26
2022-08-26T07:28:25.968Z,24.44
2022-08-26T07:33:29.891Z,24.58
2022-08-26T07:38:34.550Z,24.70
2022-08-26T07:43:38.029Z,24.86
2022-08-26T07:48:41.398Z,25.07
2022-08-26T07:53:52.428Z,25.59
2022-08-26T07:58:55.849Z,25.82
2022-08-26T08:04:00.509Z,25.85
2022-08-26T08:09:06.154Z,25.92
2022-08-26T08:14:11.832Z,25.98
2022-08-26T08:19:15.593Z,26.06
2022-08-26T08:24:18.543Z,26.18
2022-08-26T08:29:21.438Z,26.32
2022-08-26T08:34:27.223Z,26.47
2022-08-26T08:39:32.944Z,26.62
2022-08-26T08:44:44.344Z,26.73
2022-08-26T08:50:04.878Z,26.86
2022-08-26T08:55:10.360Z,26.97
2022-08-26T09:00:18.894Z,27.11
2022-08-26T09:05:34.905Z,27.30
2022-08-26T09:10:49.923Z,27.52
2022-08-26T09:16:14.305Z,27.61
2022-08-26T09:21:20.209Z,27.72
2022-08-26T09:26:30.887Z,27.86
2022-08-26T09:31:37.423Z,27.96
2022-08-26T09:36:45.346Z,28.13
2022-08-26T09:42:24.637Z,28.32
2022-08-26T09:47:47.963Z,28.45
2022-08-26T09:53:18.715Z,28.60
2022-08-26T09:58:37.849Z,28.79
2022-08-26T10:03:42.119Z,29.04
2022-08-26T10:08:52.525Z,29.20
2022-08-26T10:14:28.125Z,29.29
2022-08-26T10:20:06.488Z,29.39
2022-08-26T10:25:50.138Z,29.48
2022-08-26T10:31:38.467Z,29.68
2022-08-26T10:37:14.093Z,29.80
2022-08-26T10:42:37.601Z,29.99
2022-08-26T10:47:43.776Z,30.16
2022-08-26T10:53:15.448Z,30.34
2022-08-26T10:58:44.726Z,30.48
2022-08-26T11:04:19.466Z,30.68
2022-08-26T11:09:47.084Z,30.84
2022-08-26T11:14:58.741Z,31.05
2022-08-26T11:20:09.224Z,31.07
2022-08-26T11:25:29.281Z,31.19
2022-08-26T11:30:41.004Z,31.31
2022-08-26T11:35:47.630Z,31.45
2022-08-26T11:41:11.531Z,31.61
2022-08-26T11:46:26.852Z,31.68
2022-08-26T11:51:31.586Z,31.83
2022-08-26T11:56:36.817Z,32.11
2022-08-26T12:01:46.068Z,32.16
2022-08-26T12:06:51.697Z,32.15
2022-08-26T12:12:27.069Z,32.40
2022-08-26T12:17:30.056Z,32.65
2022-08-26T12:22:36.118Z,32.70
2022-08-26T12:27:45.521Z,32.79
2022-08-26T12:33:22.238Z,33.06
2022-08-26T12:38:28.988Z,33.24
2022-08-26T12:43:43.491Z,33.38
2022-08-26T12:48:49.698Z,33.47
2022-08-26T12:53:54.053Z,33.61
2022-08-26T12:59:26.682Z,33.66
2022-08-26T13:04:43.532Z,33.70
2022-08-26T13:09:46.366Z,33.64
2022-08-26T13:14:49.930Z,33.50
2022-08-26T13:19:52.893Z,33.28
2022-08-26T13:24:57.014Z,33.09
2022-08-26T13:30:00.422Z,32.99
2022-08-26T13:35:05.951Z,32.89
2022-08-26T13:40:10.020Z,32.79
2022-08-26T13:45:13.098Z,32.74
2022-08-26T13:50:16.097Z,32.55
2022-08-26T13:55:18.980Z,32.50
2022-08-26T14:00:23.390Z,32.40
2022-08-26T14:05:27.793Z,32.37
2022-08-26T14:10:30.718Z,32.37
2022-08-26T14:15:36.013Z,32.36
2022-08-26T14:20:39.493Z,32.42
2022-08-26T14:25:42.734Z,32.38
2022-08-26T14:30:52.249Z,32.47
2022-08-26T14:36:15.842Z,32.47
2022-08-26T14:41:20.159Z,32.67
2022-08-26T14:46:22.958Z,32.82
2022-08-26T14:51:26.232Z,32.93
2022-08-26T14:56:31.333Z,32.95
2022-08-26T15:01:34.310Z,33.14
2022-08-26T15:06:38.181Z,33.26
2022-08-26T15:11:41.254Z,33.21
2022-08-26T15:16:44.345Z,33.33
2022-08-26T15:21:47.865Z,33.18
2022-08-26T15:26:53.385Z,33.12
2022-08-26T15:31:57.420Z,33.03
2022-08-26T15:37:00.329Z,32.90
2022-08-26T15:42:04.684Z,32.81
2022-08-26T15:47:08.071Z,32.66
2022-08-26T15:52:11.120Z,32.37
2022-08-26T15:57:16.451Z,32.04
2022-08-26T16:02:22.041Z,31.87
2022-08-26T16:07:25.049Z,31.70
2022-08-26T16:12:28.542Z,31.51
2022-08-26T16:17:31.438Z,31.26
2022-08-26T16:22:34.324Z,31.03
2022-08-26T16:27:37.294Z,30.81
2022-08-26T16:32:40.255Z,30.56
2022-08-26T16:37:43.195Z,30.32
2022-08-26T16:42:46.156Z,30.10
2022-08-26T16:47:50.058Z,29.86
2022-08-26T16:52:55.968Z,29.67
2022-08-26T16:57:59.871Z,29.43
2022-08-26T17:03:02.949Z,29.19
2022-08-26T17:08:06.330Z,28.96
2022-08-26T17:13:09.483Z,28.71
2022-08-26T17:18:12.593Z,28.47
2022-08-26T17:23:16.569Z,28.23
2022-08-26T17:28:21.591Z,27.99
2022-08-26T17:33:24.906Z,27.72
2022-08-26T17:38:29.251Z,27.46
2022-08-26T17:43:32.132Z,27.24
2022-08-26T17:48:37.655Z,27.02
2022-08-26T17:53:41.898Z,26.79
2022-08-26T17:58:51.351Z,26.54
2022-08-26T18:04:00.158Z,26.34
2022-08-26T18:09:03.971Z,26.13
2022-08-26T18:14:06.762Z,25.95
2022-08-26T18:19:09.623Z,25.77
2022-08-26T18:24:14.257Z,25.59
2022-08-26T18:29:19.473Z,25.36
2022-08-26T18:34:22.945Z,25.16
2022-08-26T18:39:27.894Z,24.97
2022-08-26T18:44:30.721Z,24.79
2022-08-26T18:49:44.342Z,24.64
2022-08-26T18:54:47.177Z,24.48
2022-08-26T18:59:53.714Z,24.32
2022-08-26T19:04:57.068Z,24.15
2022-08-26T19:09:59.881Z,23.97
2022-08-26T19:15:05.891Z,23.84
2022-08-26T19:20:09.939Z,23.78
2022-08-26T19:25:13.403Z,23.69
2022-08-26T19:30:16.398Z,23.63
2022-08-26T19:35:19.371Z,23.51
2022-08-26T19:40:22.494Z,23.41
2022-08-26T19:45:25.601Z,23.36
2022-08-26T19:50:33.748Z,23.33
2022-08-26T19:55:36.690Z,23.28
2022-08-26T20:00:42.190Z,23.28
2022-08-26T20:05:44.989Z,23.28
2022-08-26T20:10:50.494Z,23.28
2022-08-26T20:15:53.444Z,23.18
2022-08-26T20:21:15.835Z,23.11
2022-08-26T20:26:19.144Z,23.02
2022-08-26T20:31:22.599Z,22.93
2022-08-26T20:36:27.955Z,22.83
2022-08-26T20:41:31.421Z,22.70
2022-08-26T20:46:37.270Z,22.61
2022-08-26T20:51:43.155Z,22.49
2022-08-26T20:56:46.746Z,22.37
2022-08-26T21:01:52.073Z,22.26
2022-08-26T21:06:55.758Z,22.19
2022-08-26T21:11:59.483Z,22.11
2022-08-26T21:17:02.635Z,22.05
2022-08-26T21:22:06.183Z,22.01
2022-08-26T21:27:09.160Z,21.96
2022-08-26T21:32:12.424Z,21.91
2022-08-26T21:37:18.651Z,21.92
2022-08-26T21:42:22.030Z,21.89
2022-08-26T21:47:25.020Z,21.87
2022-08-26T21:52:28.361Z,21.84
2022-08-26T21:57:33.059Z,21.81
2022-08-26T22:02:37.006Z,21.79
2022-08-26T22:07:40.013Z,21.74
2022-08-26T22:12:42.923Z,21.67
2022-08-26T22:17:45.813Z,21.63
2022-08-26T22:22:48.619Z,21.57
2022-08-26T22:27:51.983Z,21.52
2022-08-26T22:32:54.934Z,21.47
2022-08-26T22:37:59.055Z,21.42
2022-08-26T22:43:04.427Z,21.34
2022-08-26T22:48:07.463Z,21.30
2022-08-26T22:53:10.502Z,21.23
2022-08-26T22:58:17.089Z,21.17
2022-08-26T23:03:21.175Z,21.06
2022-08-26T23:08:26.374Z,20.99
2022-08-26T23:13:29.284Z,20.92
2022-08-26T23:18:32.728Z,20.81
2022-08-26T23:23:35.753Z,20.73
2022-08-26T23:28:40.325Z,20.67
2022-08-26T23:34:01.551Z,20.63
2022-08-26T23:39:06.097Z,20.58
2022-08-26T23:44:09.002Z,20.53
2022-08-26T23:49:11.869Z,20.49
2022-08-26T23:54:14.942Z,20.46
2022-08-26T23:59:17.777Z,20.41
